createdAt,value
2022-09-05T00:02:02.957Z,55.04
2022-09-05T00:04:56.633Z,55.01
2022-09-05T00:07:58.251Z,55.08
2022-09-05T00:11:39.680Z,55.00
2022-09-05T00:14:03.317Z,55.36
2022-09-05T00:16:44.719Z,55.95
2022-09-05T00:24:23.449Z,55.28
2022-09-05T00:24:30.630Z,55.73
2022-09-05T00:25:31.860Z,55.77
2022-09-05T00:28:26.858Z,56.12
2022-09-05T00:31:54.174Z,56.11
2022-09-05T00:34:07.851Z,56.06
2022-09-05T00:36:56.169Z,56.32
2022-09-05T00:39:29.243Z,56.59
2022-09-05T00:41:59.822Z,57.08
2022-09-05T00:44:31.283Z,56.63
2022-09-05T00:47:16.982Z,56.74
2022-09-05T00:49:49.776Z,56.86
2022-09-05T00:52:37.011Z,57.25
2022-09-05T00:55:20.327Z,56.81
2022-09-05T00:57:55.930Z,57.22
2022-09-05T01:00:33.813Z,57.07
2022-09-05T01:03:25.360Z,57.22
2022-09-05T01:06:15.258Z,57.49
2022-09-05T01:09:10.051Z,57.73
2022-09-05T01:11:44.556Z,57.00
2022-09-05T01:14:30.050Z,57.75
2022-09-05T01:17:18.816Z,57.65
2022-09-05T01:20:19.081Z,57.44
2022-09-05T01:23:15.557Z,58.05
2022-09-05T01:26:22.048Z,58.00
2022-09-05T01:29:20.034Z,58.05
2022-09-05T01:32:03.515Z,58.31
2022-09-05T01:34:42.167Z,58.12
2022-09-05T01:37:34.328Z,57.87
2022-09-05T01:40:14.729Z,58.12
2022-09-05T01:43:10.434Z,58.76
2022-09-05T01:46:00.678Z,58.51
2022-09-05T01:48:47.567Z,58.88
2022-09-05T01:51:32.144Z,58.39
2022-09-05T01:54:21.183Z,58.88
2022-09-05T01:57:19.554Z,59.00
2022-09-05T02:00:01.224Z,58.64
2022-09-05T02:02:38.406Z,58.70
2022-09-05T02:05:11.591Z,58.93
2022-09-05T02:08:11.483Z,58.74
2022-09-05T02:11:09.492Z,59.23
2022-09-05T02:13:36.268Z,59.41
2022-09-05T02:16:23.358Z,59.22
2022-09-05T02:19:16.798Z,59.16
2022-09-05T02:21:56.278Z,59.40
2022-09-05T02:24:33.225Z,59.68
2022-09-05T02:27:09.132Z,59.77
2022-09-05T02:30:00.483Z,59.45
2022-09-05T02:32:32.898Z,59.44
2022-09-05T02:35:26.982Z,59.53
2022-09-05T02:43:35.354Z,59.69
2022-09-05T02:45:18.370Z,59.41
2022-09-05T02:45:23.911Z,59.79
2022-09-05T02:48:15.128Z,59.92
2022-09-05T02:57:25.163Z,59.85
2022-09-05T02:57:34.734Z,59.99
2022-09-05T02:57:43.080Z,59.80
2022-09-05T03:00:11.987Z,60.02
2022-09-05T03:03:00.923Z,60.05
2022-09-05T03:05:52.749Z,60.33
2022-09-05T03:08:27.106Z,60.16
2022-09-05T03:11:16.065Z,60.32
2022-09-05T03:14:07.636Z,60.24
2022-09-05T03:16:56.183Z,60.37
2022-09-05T03:20:00.611Z,60.44
2022-09-05T03:23:08.452Z,60.69
2022-09-05T03:25:58.065Z,60.43
2022-09-05T03:28:40.094Z,60.78
2022-09-05T03:31:22.948Z,60.67
2022-09-05T03:34:09.643Z,60.80
2022-09-05T03:36:39.487Z,60.54
2022-09-05T03:39:21.740Z,60.97
2022-09-05T03:42:33.347Z,60.83
2022-09-05T03:45:37.851Z,61.07
2022-09-05T03:48:38.948Z,61.08
2022-09-05T03:57:10.323Z,61.24
2022-09-05T03:57:26.662Z,61.10
2022-09-05T03:58:05.841Z,61.09
2022-09-05T04:01:10.992Z,61.27
2022-09-05T04:08:15.459Z,61.56
2022-09-05T04:08:19.247Z,61.59
2022-09-05T04:09:59.289Z,61.87
2022-09-05T04:12:48.685Z,61.51
2022-09-05T04:15:34.821Z,61.94
2022-09-05T04:18:25.734Z,61.74
2022-09-05T04:21:28.036Z,61.54
2022-09-05T04:24:17.997Z,62.10
2022-09-05T04:26:54.546Z,62.11
2022-09-05T04:29:48.221Z,61.75
2022-09-05T04:32:38.982Z,61.97
2022-09-05T04:35:47.677Z,62.19
2022-09-05T04:38:17.039Z,61.81
2022-09-05T04:41:08.213Z,61.71
2022-09-05T04:43:53.799Z,62.26
2022-09-05T04:46:23.533Z,62.41
2022-09-05T04:49:16.474Z,62.91
2022-09-05T04:51:43.904Z,62.73
2022-09-05T04:54:30.358Z,62.58
2022-09-05T04:57:24.292Z,62.99
2022-09-05T05:05:58.697Z,63.01
2022-09-05T05:06:17.746Z,63.36
2022-09-05T05:06:30.074Z,62.91
2022-09-05T05:09:12.706Z,63.24
2022-09-05T05:17:54.143Z,62.91
2022-09-05T05:18:12.193Z,63.19
2022-09-05T05:18:14.835Z,63.59
2022-09-05T05:20:56.526Z,63.63
2022-09-05T05:23:39.718Z,63.28
2022-09-05T05:26:28.080Z,62.98
2022-09-05T05:28:59.571Z,63.46
2022-09-05T05:31:31.597Z,63.50
2022-09-05T05:34:02.202Z,63.24
2022-09-05T05:36:37.757Z,63.74
2022-09-05T05:39:06.411Z,63.03
2022-09-05T05:41:38.993Z,63.19
2022-09-05T05:44:18.282Z,63.13
2022-09-05T05:46:59.292Z,63.19
2022-09-05T05:49:57.541Z,63.11
2022-09-05T05:53:01.252Z,63.15
2022-09-05T05:56:03.191Z,63.14
2022-09-05T05:59:01.173Z,63.35
2022-09-05T06:01:38.743Z,63.46
2022-09-05T06:04:34.002Z,63.27
2022-09-05T06:07:50.970Z,63.52
2022-09-05T06:14:49.121Z,63.54
2022-09-05T06:15:07.078Z,63.79
2022-09-05T06:17:28.129Z,63.46
2022-09-05T06:22:08.806Z,63.39
2022-09-05T06:23:47.278Z,63.40
2022-09-05T06:26:30.537Z,63.20
2022-09-05T06:29:18.819Z,63.20
2022-09-05T06:31:54.701Z,62.96
2022-09-05T06:34:35.697Z,62.91
2022-09-05T06:37:13.984Z,63.04
2022-09-05T06:40:05.747Z,63.50
2022-09-05T06:42:54.767Z,63.10
2022-09-05T06:46:00.970Z,63.52
2022-09-05T06:48:45.978Z,63.43
2022-09-05T06:51:45.015Z,63.95
2022-09-05T06:54:38.633Z,63.34
2022-09-05T06:57:40.003Z,63.66
2022-09-05T07:00:25.053Z,65.10
2022-09-05T07:03:25.556Z,64.41
2022-09-05T07:06:08.986Z,64.47
2022-09-05T07:08:53.976Z,64.17
2022-09-05T07:11:52.527Z,64.26
2022-09-05T07:14:24.311Z,64.40
2022-09-05T07:17:05.694Z,64.45
2022-09-05T07:19:44.401Z,64.68
2022-09-05T07:22:48.613Z,64.73
2022-09-05T07:25:19.990Z,64.56
2022-09-05T07:28:27.008Z,64.06
2022-09-05T07:30:52.323Z,63.17
2022-09-05T07:33:22.016Z,62.94
2022-09-05T07:35:50.759Z,61.74
2022-09-05T07:38:26.694Z,61.87
2022-09-05T07:41:18.768Z,61.55
2022-09-05T07:43:46.933Z,61.93
2022-09-05T07:46:23.772Z,61.59
2022-09-05T07:48:55.987Z,61.12
2022-09-05T07:56:46.835Z,61.47
2022-09-05T07:56:54.033Z,61.21
2022-09-05T07:57:50.659Z,60.70
2022-09-05T08:00:26.412Z,60.61
2022-09-05T08:03:00.872Z,60.31
2022-09-05T08:05:35.852Z,60.11
2022-09-05T08:08:08.526Z,59.96
2022-09-05T08:11:22.423Z,59.70
2022-09-05T08:14:03.704Z,59.18
2022-09-05T08:16:43.106Z,59.68
2022-09-05T08:19:28.839Z,59.70
2022-09-05T08:21:57.619Z,59.41
2022-09-05T08:24:41.706Z,59.14
2022-09-05T08:27:16.167Z,59.35
2022-09-05T08:29:46.887Z,59.19
2022-09-05T08:32:40.343Z,59.10
2022-09-05T08:35:22.049Z,59.22
2022-09-05T08:37:50.252Z,59.23
2022-09-05T08:40:39.178Z,59.18
2022-09-05T08:45:01.125Z,59.30
2022-09-05T08:46:40.997Z,58.38
2022-09-05T08:49:44.026Z,58.18
2022-09-05T08:52:28.042Z,58.27
2022-09-05T08:55:15.793Z,58.04
2022-09-05T08:58:03.855Z,57.92
2022-09-05T09:01:04.571Z,58.41
2022-09-05T09:03:59.686Z,58.56
2022-09-05T09:07:09.490Z,58.23
2022-09-05T09:09:42.294Z,58.67
2022-09-05T09:12:18.328Z,58.53
2022-09-05T09:15:00.728Z,58.54
2022-09-05T09:17:45.278Z,58.49
2022-09-05T09:20:12.043Z,58.43
2022-09-05T09:22:59.475Z,59.04
2022-09-05T09:25:44.249Z,58.70
2022-09-05T09:28:47.834Z,58.65
2022-09-05T09:31:36.025Z,58.62
2022-09-05T09:34:14.014Z,59.16
2022-09-05T09:37:14.826Z,58.39
2022-09-05T09:40:16.228Z,58.57
2022-09-05T09:42:53.894Z,58.52
2022-09-05T09:45:28.196Z,58.28
2022-09-05T09:48:09.752Z,58.97
2022-09-05T09:51:13.639Z,58.47
2022-09-05T09:54:05.801Z,58.77
2022-09-05T09:56:44.788Z,58.20
2022-09-05T09:59:24.421Z,57.52
2022-09-05T10:04:01.281Z,57.73
2022-09-05T10:10:52.609Z,56.65
2022-09-05T10:11:09.180Z,57.98
2022-09-05T10:12:04.137Z,55.37
2022-09-05T10:14:49.911Z,55.37
2022-09-05T10:17:36.763Z,56.24
2022-09-05T10:20:35.949Z,55.68
2022-09-05T10:23:45.314Z,55.52
2022-09-05T10:26:27.527Z,53.04
2022-09-05T10:29:34.061Z,52.03
2022-09-05T10:35:10.679Z,53.62
2022-09-05T10:35:22.619Z,54.24
2022-09-05T10:38:06.358Z,53.39
2022-09-05T10:41:20.005Z,54.14
2022-09-05T10:43:30.046Z,51.94
2022-09-05T10:46:06.076Z,51.85
2022-09-05T10:48:53.574Z,51.90
2022-09-05T10:51:31.483Z,51.72
2022-09-05T10:54:29.595Z,51.09
2022-09-05T10:57:01.496Z,50.25
2022-09-05T11:01:38.940Z,51.51
2022-09-05T11:02:39.672Z,50.59
2022-09-05T11:05:26.644Z,51.48
2022-09-05T11:08:13.840Z,49.61
2022-09-05T11:10:55.248Z,48.40
2022-09-05T11:13:37.221Z,49.43
2022-09-05T11:16:22.724Z,48.03
2022-09-05T11:18:59.155Z,48.37
2022-09-05T11:22:22.210Z,47.28
2022-09-05T11:25:14.072Z,48.38
2022-09-05T11:27:51.502Z,47.98
2022-09-05T11:30:30.197Z,47.32
2022-09-05T11:39:42.499Z,46.73
2022-09-05T11:39:51.368Z,47.01
2022-09-05T11:40:03.913Z,46.29
2022-09-05T11:42:11.137Z,45.23
2022-09-05T11:44:56.817Z,45.69
2022-09-05T11:47:47.132Z,44.94
2022-09-05T11:50:16.927Z,45.66
2022-09-05T11:53:02.169Z,43.52
2022-09-05T11:55:34.794Z,43.57
2022-09-05T11:58:44.021Z,43.36
2022-09-05T12:04:17.010Z,43.43
2022-09-05T12:07:27.108Z,40.89
2022-09-05T12:10:46.220Z,42.31
2022-09-05T12:13:32.233Z,41.54
2022-09-05T12:16:08.644Z,42.30
2022-09-05T12:18:51.354Z,41.39
2022-09-05T12:21:38.237Z,41.23
2022-09-05T12:25:24.545Z,41.36
2022-09-05T12:27:44.234Z,38.49
2022-09-05T12:30:14.097Z,40.18
2022-09-05T12:40:48.263Z,40.67
2022-09-05T12:40:56.154Z,37.98
2022-09-05T12:41:42.126Z,39.43
2022-09-05T12:41:43.260Z,42.49
2022-09-05T12:44:40.285Z,38.25
2022-09-05T12:46:04.755Z,37.47
2022-09-05T12:48:50.958Z,38.62
2022-09-05T12:51:46.924Z,37.85
2022-09-05T12:54:33.817Z,36.76
2022-09-05T13:02:55.129Z,36.72
2022-09-05T13:03:06.312Z,37.41
2022-09-05T13:03:35.687Z,38.03
2022-09-05T13:06:09.641Z,37.23
2022-09-05T13:08:59.461Z,35.58
2022-09-05T13:14:52.428Z,34.76
2022-09-05T13:14:52.527Z,35.59
2022-09-05T13:17:16.565Z,36.38
2022-09-05T13:19:51.741Z,37.21
2022-09-05T13:22:22.625Z,35.20
2022-09-05T13:24:57.722Z,35.68
2022-09-05T13:27:28.083Z,34.81
2022-09-05T13:31:33.305Z,35.47
2022-09-05T13:37:58.026Z,34.93
2022-09-05T13:38:10.812Z,33.53
2022-09-05T13:38:48.630Z,34.55
2022-09-05T13:41:27.740Z,33.44
2022-09-05T13:44:27.572Z,32.96
2022-09-05T13:46:59.149Z,32.14
2022-09-05T13:49:56.846Z,29.39
2022-09-05T13:53:15.231Z,30.38
2022-09-05T13:55:53.929Z,31.19
2022-09-05T13:58:30.306Z,31.27
2022-09-05T14:01:23.287Z,30.70
2022-09-05T14:07:46.598Z,32.39
2022-09-05T14:10:26.045Z,33.02
2022-09-05T14:13:02.752Z,30.98
2022-09-05T14:15:52.903Z,31.28
2022-09-05T14:18:23.442Z,31.57
2022-09-05T14:21:16.598Z,32.32
2022-09-05T14:24:04.661Z,31.03
2022-09-05T14:26:40.644Z,31.87
2022-09-05T14:29:13.981Z,32.24
2022-09-05T14:37:46.431Z,30.94
2022-09-05T14:37:50.570Z,30.03
2022-09-05T14:38:09.590Z,30.86
2022-09-05T14:40:53.402Z,31.01
2022-09-05T14:43:32.145Z,31.68
2022-09-05T14:46:29.362Z,32.70
2022-09-05T14:49:34.521Z,32.94
2022-09-05T14:52:23.724Z,30.91
2022-09-05T15:02:43.423Z,29.53
2022-09-05T15:02:53.849Z,30.37
2022-09-05T15:06:35.407Z,29.49
2022-09-05T15:12:16.941Z,31.00
2022-09-05T15:12:23.643Z,29.87
2022-09-05T15:14:41.559Z,30.23
2022-09-05T15:17:08.498Z,30.53
2022-09-05T15:19:53.271Z,30.26
2022-09-05T15:22:41.606Z,29.50
2022-09-05T15:25:23.542Z,29.57
2022-09-05T15:27:50.966Z,27.69
2022-09-05T15:30:34.730Z,27.92
2022-09-05T15:33:26.809Z,28.03
2022-09-05T15:35:54.631Z,29.73
2022-09-05T15:38:23.169Z,28.89
2022-09-05T15:41:11.542Z,29.37
2022-09-05T15:43:51.392Z,28.60
2022-09-05T15:46:29.451Z,28.48
2022-09-05T15:49:03.974Z,27.54
2022-09-05T15:51:50.220Z,28.02
2022-09-05T15:54:39.453Z,28.38
2022-09-05T15:57:17.415Z,29.28
2022-09-05T15:59:48.942Z,29.02
2022-09-05T16:02:28.400Z,28.29
2022-09-05T16:10:29.800Z,29.34
2022-09-05T16:10:42.376Z,28.39
2022-09-05T16:11:46.141Z,29.41
2022-09-05T16:14:09.802Z,29.37
2022-09-05T16:16:40.570Z,28.67
2022-09-05T16:23:18.148Z,28.70
2022-09-05T16:23:25.120Z,29.61
2022-09-05T16:25:34.536Z,28.32
2022-09-05T16:28:06.546Z,28.79
2022-09-05T16:30:37.720Z,28.82
2022-09-05T16:33:20.281Z,27.56
2022-09-05T16:35:51.528Z,27.70
2022-09-05T16:38:49.534Z,29.08
2022-09-05T16:41:51.047Z,28.59
2022-09-05T16:44:36.453Z,29.20
2022-09-05T16:47:27.145Z,30.63
2022-09-05T16:50:00.238Z,30.28
2022-09-05T16:52:35.733Z,30.77
2022-09-05T16:55:29.242Z,31.11
2022-09-05T16:58:00.650Z,31.00
2022-09-05T17:00:41.117Z,31.09
2022-09-05T17:03:28.415Z,31.60
2022-09-05T17:06:26.627Z,31.18
2022-09-05T17:08:58.178Z,32.09
2022-09-05T17:11:59.831Z,32.05
2022-09-05T17:14:34.156Z,31.95
2022-09-05T17:18:19.103Z,31.92
2022-09-05T17:20:16.147Z,32.33
2022-09-05T17:29:15.790Z,32.88
2022-09-05T17:29:33.147Z,33.03
2022-09-05T17:29:49.900Z,33.18
2022-09-05T17:31:59.849Z,33.12
2022-09-05T17:35:16.830Z,33.08
2022-09-05T17:38:02.952Z,33.01
2022-09-05T17:40:55.262Z,33.16
2022-09-05T17:43:28.781Z,33.72
2022-09-05T17:46:17.469Z,32.92
2022-09-05T17:48:57.287Z,32.85
2022-09-05T17:51:34.406Z,32.94
2022-09-05T17:54:08.320Z,33.06
2022-09-05T17:56:40.118Z,33.29
2022-09-05T17:59:12.917Z,33.22
2022-09-05T18:02:02.823Z,33.34
2022-09-05T18:04:50.434Z,33.01
2022-09-05T18:07:26.469Z,33.10
2022-09-05T18:10:12.736Z,32.95
2022-09-05T18:13:12.599Z,33.34
2022-09-05T18:15:36.201Z,32.89
2022-09-05T18:18:38.417Z,33.05
2022-09-05T18:21:21.693Z,33.21
2022-09-05T18:24:03.247Z,33.38
2022-09-05T18:26:40.358Z,33.22
2022-09-05T18:29:21.178Z,33.61
2022-09-05T18:32:11.149Z,33.62
2022-09-05T18:34:38.078Z,33.58
2022-09-05T18:37:37.656Z,33.71
2022-09-05T18:40:07.460Z,33.80
2022-09-05T18:42:39.677Z,34.26
2022-09-05T18:45:17.818Z,33.96
2022-09-05T18:47:59.597Z,34.27
2022-09-05T18:50:32.458Z,34.34
2022-09-05T18:53:06.366Z,34.46
2022-09-05T18:56:13.519Z,34.73
2022-09-05T18:59:09.640Z,34.37
2022-09-05T19:01:58.621Z,34.43
2022-09-05T19:04:38.944Z,34.42
2022-09-05T19:07:10.724Z,34.47
2022-09-05T19:09:56.775Z,34.46
2022-09-05T19:12:32.146Z,34.57
2022-09-05T19:15:30.901Z,34.50
2022-09-05T19:18:22.807Z,34.63
2022-09-05T19:21:12.098Z,34.54
2022-09-05T19:23:52.993Z,34.65
2022-09-05T19:26:20.779Z,34.54
2022-09-05T19:34:27.163Z,34.87
2022-09-05T19:36:46.280Z,35.11
2022-09-05T19:37:22.794Z,35.38
2022-09-05T19:37:38.610Z,35.25
2022-09-05T19:47:28.040Z,35.04
2022-09-05T19:47:34.814Z,34.96
2022-09-05T19:47:36.392Z,35.20
2022-09-05T19:48:37.296Z,34.95
2022-09-05T19:51:16.962Z,34.78
2022-09-05T19:53:55.216Z,34.82
2022-09-05T19:56:40.627Z,34.29
2022-09-05T19:59:34.186Z,34.43
2022-09-05T20:02:02.496Z,34.16
2022-09-05T20:04:37.064Z,34.70
2022-09-05T20:07:16.344Z,34.69
2022-09-05T20:09:46.998Z,33.93
2022-09-05T20:12:25.190Z,34.15
2022-09-05T20:14:52.132Z,34.47
2022-09-05T20:17:34.328Z,34.52
2022-09-05T20:20:11.138Z,34.58
2022-09-05T20:22:47.457Z,34.35
2022-09-05T20:25:48.729Z,34.11
2022-09-05T20:28:20.850Z,33.17
2022-09-05T20:30:54.638Z,33.38
2022-09-05T20:33:27.046Z,33.13
2022-09-05T20:42:57.812Z,33.09
2022-09-05T20:43:24.926Z,32.82
2022-09-05T20:43:35.565Z,32.94
2022-09-05T20:44:41.678Z,33.40
2022-09-05T20:54:05.337Z,33.02
2022-09-05T20:54:13.959Z,33.74
2022-09-05T20:54:14.295Z,33.43
2022-09-05T20:56:02.113Z,33.42
2022-09-05T20:58:31.357Z,33.73
2022-09-05T21:01:22.925Z,33.46
2022-09-05T21:04:04.998Z,33.50
2022-09-05T21:06:36.897Z,33.45
2022-09-05T21:09:14.935Z,33.61
2022-09-05T21:11:42.790Z,33.44
2022-09-05T21:14:10.618Z,33.31
2022-09-05T21:16:49.433Z,33.72
2022-09-05T21:19:29.494Z,33.54
2022-09-05T21:22:15.135Z,34.23
2022-09-05T21:24:42.409Z,34.58
2022-09-05T21:27:24.075Z,34.53
2022-09-05T21:29:59.309Z,34.50
2022-09-05T21:32:27.971Z,34.12
2022-09-05T21:35:33.684Z,34.19
2022-09-05T21:37:53.350Z,34.57
2022-09-05T21:40:21.128Z,34.47
2022-09-05T21:47:33.878Z,34.55
2022-09-05T21:47:48.294Z,34.39
2022-09-05T21:48:24.356Z,34.43
2022-09-05T21:50:53.342Z,34.47
2022-09-05T21:57:30.248Z,34.23
2022-09-05T21:59:24.479Z,35.14
2022-09-05T21:59:33.207Z,34.57
2022-09-05T22:01:56.664Z,35.51
2022-09-05T22:04:23.630Z,35.63
2022-09-05T22:06:52.989Z,36.21
2022-09-05T22:09:22.901Z,36.29
2022-09-05T22:11:52.710Z,36.44
2022-09-05T22:14:21.508Z,36.44
2022-09-05T22:16:50.726Z,36.74
2022-09-05T22:19:36.758Z,37.34
2022-09-05T22:22:15.981Z,37.59
2022-09-05T22:24:54.508Z,37.79
2022-09-05T22:27:22.299Z,38.02
2022-09-05T22:29:51.106Z,38.29
2022-09-05T22:32:35.159Z,38.35
2022-09-05T22:35:15.770Z,38.67
2022-09-05T22:37:59.341Z,38.52
2022-09-05T22:40:28.567Z,39.24
2022-09-05T22:43:00.730Z,38.98
2022-09-05T22:45:29.162Z,38.96
2022-09-05T22:47:56.152Z,39.28
2022-09-05T22:50:23.570Z,39.54
2022-09-05T22:52:50.792Z,39.51
2022-09-05T22:55:18.206Z,39.56
2022-09-05T22:57:45.096Z,39.92
2022-09-05T23:00:12.220Z,40.00
2022-09-05T23:02:39.117Z,40.10
2022-09-05T23:05:06.824Z,40.85
2022-09-05T23:07:34.225Z,40.50
2022-09-05T23:10:01.178Z,40.57
2022-09-05T23:12:28.074Z,40.77
2022-09-05T23:14:55.069Z,40.69
2022-09-05T23:17:21.991Z,40.87
2022-09-05T23:19:48.893Z,41.17
2022-09-05T23:22:16.014Z,41.29
2022-09-05T23:24:42.924Z,41.19
2022-09-05T23:27:09.806Z,41.39
2022-09-05T23:29:37.186Z,42.15
2022-09-05T23:32:04.125Z,42.19
2022-09-05T23:34:33.070Z,41.95
2022-09-05T23:36:59.998Z,42.08
2022-09-05T23:39:26.958Z,42.58
2022-09-05T23:41:53.934Z,42.80
2022-09-05T23:44:20.815Z,42.68
2022-09-05T23:46:47.710Z,42.79
2022-09-05T23:49:14.587Z,43.25
2022-09-05T23:51:41.481Z,43.49
2022-09-05T23:54:08.367Z,43.51
2022-09-05T23:56:35.326Z,44.15
2022-09-05T23:59:02.210Z,44.11
